createdAt,value
2022-11-05T00:05:14.756Z,99.99
2022-11-05T00:15:14.807Z,99.99
2022-11-05T00:25:15.024Z,99.99
2022-11-05T00:35:15.207Z,99.99
2022-11-05T00:45:15.707Z,99.99
2022-11-05T00:55:15.536Z,99.99
2022-11-05T01:05:15.936Z,99.99
2022-11-05T01:15:15.873Z,99.99
2022-11-05T01:25:16.081Z,99.99
2022-11-05T01:35:16.277Z,99.67
2022-11-05T01:45:16.750Z,99.98
2022-11-05T01:55:16.587Z,99.99
2022-11-05T02:05:16.815Z,99.99
2022-11-05T02:15:16.981Z,99.99
2022-11-05T02:25:17.188Z,99.99
2022-11-05T02:35:17.372Z,99.99
2022-11-05T02:45:17.591Z,99.99
2022-11-05T02:55:18.046Z,99.99
2022-11-05T03:05:17.934Z,99.99
2022-11-05T03:15:18.298Z,99.99
2022-11-05T03:25:18.298Z,99.99
2022-11-05T03:35:18.467Z,99.99
2022-11-05T03:45:18.852Z,99.99
2022-11-05T03:55:18.780Z,99.99
2022-11-05T04:05:19.005Z,99.99
2022-11-05T04:15:19.193Z,99.99
2022-11-05T04:25:19.747Z,99.99
2022-11-05T04:35:19.572Z,99.99
2022-11-05T04:45:19.777Z,99.99
2022-11-05T04:55:19.973Z,99.99
2022-11-05T05:05:20.210Z,99.99
2022-11-05T05:15:20.390Z,99.99
2022-11-05T05:25:20.603Z,99.99
2022-11-05T05:35:20.792Z,99.99
2022-11-05T05:45:21.264Z,99.99
2022-11-05T05:55:21.217Z,99.99
2022-11-05T06:05:21.714Z,99.99
2022-11-05T06:15:21.585Z,99.99
2022-11-05T06:25:21.682Z,99.99
2022-11-05T06:35:21.838Z,99.99
2022-11-05T06:45:22.062Z,99.99
2022-11-05T06:55:22.237Z,99.99
2022-11-05T07:05:22.458Z,99.99
2022-11-05T07:15:22.519Z,99.99
2022-11-05T07:25:22.900Z,99.99
2022-11-05T07:35:22.833Z,99.99
2022-11-05T07:45:23.374Z,99.99
2022-11-05T07:55:23.365Z,99.99
2022-11-05T08:05:23.592Z,99.99
2022-11-05T08:15:23.566Z,99.99
2022-11-05T08:25:23.698Z,99.99
2022-11-05T08:35:23.870Z,99.99
2022-11-05T08:45:24.354Z,99.99
2022-11-05T08:55:24.180Z,99.99
2022-11-05T09:05:24.400Z,99.99
2022-11-05T09:15:24.637Z,99.99
2022-11-05T09:25:24.736Z,99.99
2022-11-05T09:35:24.915Z,99.99
2022-11-05T09:45:25.129Z,99.99
2022-11-05T09:55:25.322Z,99.99
2022-11-05T10:05:25.652Z,99.99
2022-11-05T10:15:25.713Z,99.99
2022-11-05T10:25:25.935Z,99.99
2022-11-05T10:35:26.111Z,99.99
2022-11-05T10:45:26.417Z,99.99
2022-11-05T10:55:26.476Z,99.99
2022-11-05T11:05:26.793Z,99.99
2022-11-05T11:15:27.349Z,99.99
2022-11-05T11:25:27.507Z,99.99
2022-11-05T11:35:27.106Z,99.99
2022-11-05T11:45:27.591Z,99.99
2022-11-05T11:55:27.434Z,99.99
2022-11-05T12:05:27.779Z,99.99
2022-11-05T12:15:28.093Z,99.99
2022-11-05T12:25:27.983Z,99.99
2022-11-05T12:35:28.267Z,99.89
2022-11-05T12:45:28.387Z,99.99
2022-11-05T12:55:28.503Z,99.33
2022-11-05T13:05:28.656Z,98.92
2022-11-05T13:15:28.736Z,98.25
2022-11-05T13:25:28.950Z,97.03
2022-11-05T13:35:29.145Z,96.72
2022-11-05T13:45:29.352Z,97.80
2022-11-05T13:55:29.645Z,96.10
2022-11-05T14:05:29.800Z,97.64
2022-11-05T14:15:29.874Z,97.74
2022-11-05T14:25:30.217Z,99.43
2022-11-05T14:35:30.318Z,99.99
2022-11-05T14:45:30.535Z,99.99
2022-11-05T14:55:30.587Z,99.99
2022-11-05T15:05:31.023Z,99.99
2022-11-05T15:15:30.972Z,98.66
2022-11-05T15:25:31.272Z,98.29
2022-11-05T15:35:31.372Z,99.42
2022-11-05T15:45:31.653Z,99.52
2022-11-05T15:55:31.836Z,99.52
2022-11-05T16:05:32.055Z,99.99
2022-11-05T16:15:32.196Z,99.99
2022-11-05T16:25:32.611Z,99.99
2022-11-05T16:35:32.556Z,99.99
2022-11-05T16:45:37.119Z,99.99
2022-11-05T16:55:33.803Z,99.99
2022-11-05T17:05:33.042Z,99.99
2022-11-05T17:15:33.120Z,99.99
2022-11-05T17:25:33.435Z,99.99
2022-11-05T17:35:33.609Z,99.99
2022-11-05T17:45:33.716Z,99.99
2022-11-05T17:55:33.919Z,99.99
2022-11-05T18:05:34.517Z,99.99
2022-11-05T18:15:34.329Z,99.99
2022-11-05T18:25:34.550Z,99.99
2022-11-05T18:35:34.739Z,99.99
2022-11-05T18:45:34.966Z,99.99
2022-11-05T18:55:35.142Z,99.99
2022-11-05T19:05:35.523Z,99.99
2022-11-05T19:15:35.775Z,99.99
2022-11-05T19:25:35.751Z,99.99
2022-11-05T19:35:41.036Z,99.99
2022-11-05T19:45:44.613Z,99.99
2022-11-05T19:55:37.235Z,99.99
2022-11-05T20:05:36.487Z,99.99
2022-11-05T20:15:36.561Z,99.99
2022-11-05T20:25:36.928Z,99.99
2022-11-05T20:35:36.890Z,99.99
2022-11-05T20:45:37.138Z,99.99
2022-11-05T20:55:37.339Z,99.99
2022-11-05T21:05:37.703Z,99.99
2022-11-05T21:15:37.763Z,99.99
2022-11-05T21:25:37.981Z,99.99
2022-11-05T21:35:38.179Z,99.99
2022-11-05T21:45:38.521Z,99.99
2022-11-05T21:55:38.588Z,99.99
2022-11-05T22:05:38.829Z,99.99
2022-11-05T22:15:38.920Z,99.99
2022-11-05T22:25:39.243Z,99.99
2022-11-05T22:35:39.320Z,99.99
2022-11-05T22:45:39.566Z,99.99
2022-11-05T22:55:39.775Z,99.99
2022-11-05T23:05:40.027Z,99.99
2022-11-05T23:15:40.116Z,99.99
2022-11-05T23:25:40.367Z,99.99
2022-11-05T23:35:40.568Z,99.99
2022-11-05T23:45:40.803Z,99.99
2022-11-05T23:55:40.978Z,99.99
